sensor_id;sensor_type;location;lat;lon;timestamp;P1;durP1;ratioP1;P2;durP2;ratioP2
35689;SDS011;26977;44.830;-0.674;2022-08-20T00:00:21;5.35;;;2.60;;
35689;SDS011;26977;44.830;-0.674;2022-08-20T00:02:49;3.33;;;2.42;;
35689;SDS011;26977;44.830;-0.674;2022-08-20T00:05:26;6.18;;;2.25;;
35689;SDS011;26977;44.830;-0.674;2022-08-20T00:07:55;5.80;;;2.80;;
35689;SDS011;26977;44.830;-0.674;2022-08-20T00:10:23;4.57;;;2.78;;
35689;SDS011;26977;44.830;-0.674;2022-08-20T00:12:49;5.03;;;2.65;;
35689;SDS011;26977;44.830;-0.674;2022-08-20T00:15:16;5.47;;;2.88;;
35689;SDS011;26977;44.830;-0.674;2022-08-20T00:17:45;5.72;;;2.85;;
35689;SDS011;26977;44.830;-0.674;2022-08-20T00:20:14;5.68;;;2.75;;
35689;SDS011;26977;44.830;-0.674;2022-08-20T00:22:41;3.78;;;2.60;;
35689;SDS011;26977;44.830;-0.674;2022-08-20T00:25:07;6.07;;;3.10;;
35689;SDS011;26977;44.830;-0.674;2022-08-20T00:27:33;3.85;;;2.63;;
35689;SDS011;26977;44.830;-0.674;2022-08-20T00:29:59;3.97;;;2.90;;
35689;SDS011;26977;44.830;-0.674;2022-08-20T00:32:25;3.55;;;2.40;;
35689;SDS011;26977;44.830;-0.674;2022-08-20T00:34:51;5.13;;;3.00;;
35689;SDS011;26977;44.830;-0.674;2022-08-20T00:37:16;5.63;;;2.47;;
35689;SDS011;26977;44.830;-0.674;2022-08-20T00:39:42;5.95;;;2.42;;
35689;SDS011;26977;44.830;-0.674;2022-08-20T00:42:08;4.80;;;3.00;;
35689;SDS011;26977;44.830;-0.674;2022-08-20T00:44:33;4.05;;;2.50;;
35689;SDS011;26977;44.830;-0.674;2022-08-20T00:46:59;4.18;;;3.10;;
35689;SDS011;26977;44.830;-0.674;2022-08-20T00:49:27;5.45;;;2.80;;
35689;SDS011;26977;44.830;-0.674;2022-08-20T00:54:32;5.85;;;2.55;;
35689;SDS011;26977;44.830;-0.674;2022-08-20T00:57:37;3.85;;;2.63;;
35689;SDS011;26977;44.830;-0.674;2022-08-20T01:00:21;7.35;;;3.30;;
35689;SDS011;26977;44.830;-0.674;2022-08-20T01:02:50;6.15;;;3.10;;
35689;SDS011;26977;44.830;-0.674;2022-08-20T01:05:15;3.88;;;3.00;;
35689;SDS011;26977;44.830;-0.674;2022-08-20T01:07:42;4.55;;;2.78;;
35689;SDS011;26977;44.830;-0.674;2022-08-20T01:10:14;5.97;;;3.00;;
35689;SDS011;26977;44.830;-0.674;2022-08-20T01:12:43;6.57;;;3.00;;
35689;SDS011;26977;44.830;-0.674;2022-08-20T01:15:12;5.03;;;3.38;;
35689;SDS011;26977;44.830;-0.674;2022-08-20T01:17:43;3.97;;;2.58;;
35689;SDS011;26977;44.830;-0.674;2022-08-20T01:23:13;4.53;;;2.40;;
35689;SDS011;26977;44.830;-0.674;2022-08-20T01:25:52;7.57;;;3.42;;
35689;SDS011;26977;44.830;-0.674;2022-08-20T01:28:25;8.25;;;3.60;;
35689;SDS011;26977;44.830;-0.674;2022-08-20T01:30:57;8.90;;;4.18;;
35689;SDS011;26977;44.830;-0.674;2022-08-20T01:33:22;5.57;;;3.20;;
35689;SDS011;26977;44.830;-0.674;2022-08-20T01:35:49;5.05;;;3.42;;
35689;SDS011;26977;44.830;-0.674;2022-08-20T01:38:15;5.03;;;3.13;;
35689;SDS011;26977;44.830;-0.674;2022-08-20T01:43:36;4.95;;;3.35;;
35689;SDS011;26977;44.830;-0.674;2022-08-20T01:46:02;5.90;;;3.20;;
35689;SDS011;26977;44.830;-0.674;2022-08-20T01:48:28;8.18;;;3.10;;
35689;SDS011;26977;44.830;-0.674;2022-08-20T01:50:59;7.38;;;3.20;;
35689;SDS011;26977;44.830;-0.674;2022-08-20T01:53:33;4.70;;;3.22;;
35689;SDS011;26977;44.830;-0.674;2022-08-20T01:56:02;4.90;;;2.90;;
35689;SDS011;26977;44.830;-0.674;2022-08-20T01:58:34;5.70;;;3.50;;
35689;SDS011;26977;44.830;-0.674;2022-08-20T02:01:03;5.70;;;3.33;;
35689;SDS011;26977;44.830;-0.674;2022-08-20T02:03:30;7.45;;;3.75;;
35689;SDS011;26977;44.830;-0.674;2022-08-20T02:05:58;6.07;;;3.40;;
35689;SDS011;26977;44.830;-0.674;2022-08-20T02:08:24;6.07;;;3.40;;
35689;SDS011;26977;44.830;-0.674;2022-08-20T02:10:51;5.57;;;3.28;;
35689;SDS011;26977;44.830;-0.674;2022-08-20T02:13:17;5.72;;;3.45;;
35689;SDS011;26977;44.830;-0.674;2022-08-20T02:15:42;3.80;;;3.05;;
35689;SDS011;26977;44.830;-0.674;2022-08-20T02:18:10;6.68;;;3.55;;
35689;SDS011;26977;44.830;-0.674;2022-08-20T02:20:38;9.63;;;3.90;;
35689;SDS011;26977;44.830;-0.674;2022-08-20T02:23:06;7.40;;;3.50;;
35689;SDS011;26977;44.830;-0.674;2022-08-20T02:25:33;3.92;;;3.05;;
35689;SDS011;26977;44.830;-0.674;2022-08-20T02:28:00;4.57;;;2.92;;
35689;SDS011;26977;44.830;-0.674;2022-08-20T02:30:37;5.88;;;3.17;;
35689;SDS011;26977;44.830;-0.674;2022-08-20T02:33:06;5.88;;;3.38;;
35689;SDS011;26977;44.830;-0.674;2022-08-20T02:35:35;3.78;;;2.70;;
35689;SDS011;26977;44.830;-0.674;2022-08-20T02:38:03;6.13;;;2.88;;
35689;SDS011;26977;44.830;-0.674;2022-08-20T02:40:29;6.63;;;3.38;;
35689;SDS011;26977;44.830;-0.674;2022-08-20T02:42:56;6.35;;;3.67;;
35689;SDS011;26977;44.830;-0.674;2022-08-20T02:45:25;4.88;;;2.95;;
35689;SDS011;26977;44.830;-0.674;2022-08-20T02:47:53;5.38;;;2.92;;
35689;SDS011;26977;44.830;-0.674;2022-08-20T02:50:21;4.88;;;2.60;;
35689;SDS011;26977;44.830;-0.674;2022-08-20T02:52:48;4.93;;;2.88;;
35689;SDS011;26977;44.830;-0.674;2022-08-20T02:55:15;3.08;;;2.53;;
35689;SDS011;26977;44.830;-0.674;2022-08-20T02:57:41;4.68;;;2.53;;
35689;SDS011;26977;44.830;-0.674;2022-08-20T03:00:10;3.90;;;2.53;;
35689;SDS011;26977;44.830;-0.674;2022-08-20T03:02:38;3.72;;;2.63;;
35689;SDS011;26977;44.830;-0.674;2022-08-20T03:05:05;4.45;;;2.65;;
35689;SDS011;26977;44.830;-0.674;2022-08-20T03:07:31;5.78;;;2.60;;
35689;SDS011;26977;44.830;-0.674;2022-08-20T03:10:03;5.82;;;2.78;;
35689;SDS011;26977;44.830;-0.674;2022-08-20T03:12:29;4.85;;;2.47;;
35689;SDS011;26977;44.830;-0.674;2022-08-20T03:14:55;6.47;;;2.70;;
35689;SDS011;26977;44.830;-0.674;2022-08-20T03:17:21;3.92;;;2.40;;
35689;SDS011;26977;44.830;-0.674;2022-08-20T03:19:46;5.60;;;2.85;;
35689;SDS011;26977;44.830;-0.674;2022-08-20T03:22:12;5.20;;;2.95;;
35689;SDS011;26977;44.830;-0.674;2022-08-20T03:24:37;3.35;;;2.38;;
35689;SDS011;26977;44.830;-0.674;2022-08-20T03:27:03;3.20;;;2.25;;
35689;SDS011;26977;44.830;-0.674;2022-08-20T03:29:29;6.20;;;2.60;;
35689;SDS011;26977;44.830;-0.674;2022-08-20T03:31:55;7.10;;;2.53;;
35689;SDS011;26977;44.830;-0.674;2022-08-20T03:34:21;6.60;;;2.40;;
35689;SDS011;26977;44.830;-0.674;2022-08-20T03:36:47;6.25;;;2.45;;
35689;SDS011;26977;44.830;-0.674;2022-08-20T03:39:13;4.18;;;2.92;;
35689;SDS011;26977;44.830;-0.674;2022-08-20T03:41:39;7.10;;;3.28;;
35689;SDS011;26977;44.830;-0.674;2022-08-20T03:44:05;5.80;;;3.63;;
35689;SDS011;26977;44.830;-0.674;2022-08-20T03:46:31;5.35;;;3.60;;
35689;SDS011;26977;44.830;-0.674;2022-08-20T03:48:57;5.93;;;4.05;;
35689;SDS011;26977;44.830;-0.674;2022-08-20T03:51:22;5.65;;;4.15;;
35689;SDS011;26977;44.830;-0.674;2022-08-20T03:53:48;5.03;;;3.90;;
35689;SDS011;26977;44.830;-0.674;2022-08-20T03:56:14;5.65;;;3.92;;
35689;SDS011;26977;44.830;-0.674;2022-08-20T03:58:41;8.98;;;4.88;;
35689;SDS011;26977;44.830;-0.674;2022-08-20T04:01:07;9.07;;;4.90;;
35689;SDS011;26977;44.830;-0.674;2022-08-20T04:03:33;7.88;;;5.05;;
35689;SDS011;26977;44.830;-0.674;2022-08-20T04:05:59;5.60;;;4.90;;
35689;SDS011;26977;44.830;-0.674;2022-08-20T04:08:26;5.93;;;4.70;;
35689;SDS011;26977;44.830;-0.674;2022-08-20T04:10:53;4.35;;;3.95;;
35689;SDS011;26977;44.830;-0.674;2022-08-20T04:13:22;6.00;;;4.80;;
35689;SDS011;26977;44.830;-0.674;2022-08-20T04:15:49;5.60;;;3.92;;
35689;SDS011;26977;44.830;-0.674;2022-08-20T04:18:17;5.72;;;4.00;;
35689;SDS011;26977;44.830;-0.674;2022-08-20T04:20:45;5.28;;;3.50;;
35689;SDS011;26977;44.830;-0.674;2022-08-20T04:23:11;6.95;;;4.18;;
35689;SDS011;26977;44.830;-0.674;2022-08-20T04:25:38;5.65;;;4.05;;
35689;SDS011;26977;44.830;-0.674;2022-08-20T04:28:05;7.18;;;3.88;;
35689;SDS011;26977;44.830;-0.674;2022-08-20T04:30:34;4.35;;;3.47;;
35689;SDS011;26977;44.830;-0.674;2022-08-20T04:33:00;6.50;;;3.47;;
35689;SDS011;26977;44.830;-0.674;2022-08-20T04:35:26;7.82;;;3.33;;
35689;SDS011;26977;44.830;-0.674;2022-08-20T04:37:58;5.45;;;3.30;;
35689;SDS011;26977;44.830;-0.674;2022-08-20T04:40:23;4.50;;;3.30;;
35689;SDS011;26977;44.830;-0.674;2022-08-20T04:43:07;6.10;;;3.53;;
35689;SDS011;26977;44.830;-0.674;2022-08-20T04:45:34;4.57;;;3.28;;
35689;SDS011;26977;44.830;-0.674;2022-08-20T04:48:03;5.78;;;3.50;;
35689;SDS011;26977;44.830;-0.674;2022-08-20T04:50:33;3.80;;;2.85;;
35689;SDS011;26977;44.830;-0.674;2022-08-20T04:53:05;5.50;;;3.17;;
35689;SDS011;26977;44.830;-0.674;2022-08-20T04:55:33;6.88;;;2.90;;
35689;SDS011;26977;44.830;-0.674;2022-08-20T04:58:05;3.67;;;2.80;;
35689;SDS011;26977;44.830;-0.674;2022-08-20T05:00:38;3.63;;;2.30;;
35689;SDS011;26977;44.830;-0.674;2022-08-20T05:03:04;3.60;;;2.58;;
35689;SDS011;26977;44.830;-0.674;2022-08-20T05:05:33;4.30;;;2.50;;
35689;SDS011;26977;44.830;-0.674;2022-08-20T05:07:59;5.57;;;2.60;;
35689;SDS011;26977;44.830;-0.674;2022-08-20T05:10:26;4.22;;;2.22;;
35689;SDS011;26977;44.830;-0.674;2022-08-20T05:12:51;5.53;;;2.55;;
35689;SDS011;26977;44.830;-0.674;2022-08-20T05:15:17;3.88;;;2.53;;
35689;SDS011;26977;44.830;-0.674;2022-08-20T05:17:43;3.67;;;2.60;;
35689;SDS011;26977;44.830;-0.674;2022-08-20T05:20:12;4.30;;;2.45;;
35689;SDS011;26977;44.830;-0.674;2022-08-20T05:22:41;5.95;;;2.30;;
35689;SDS011;26977;44.830;-0.674;2022-08-20T05:25:07;5.57;;;2.40;;
35689;SDS011;26977;44.830;-0.674;2022-08-20T05:27:34;3.63;;;1.70;;
35689;SDS011;26977;44.830;-0.674;2022-08-20T05:30:04;4.03;;;1.85;;
35689;SDS011;26977;44.830;-0.674;2022-08-20T05:32:32;3.35;;;1.67;;
35689;SDS011;26977;44.830;-0.674;2022-08-20T05:34:59;4.07;;;1.52;;
35689;SDS011;26977;44.830;-0.674;2022-08-20T05:37:26;4.18;;;1.48;;
35689;SDS011;26977;44.830;-0.674;2022-08-20T05:39:53;1.90;;;1.15;;
35689;SDS011;26977;44.830;-0.674;2022-08-20T05:42:19;4.13;;;1.52;;
35689;SDS011;26977;44.830;-0.674;2022-08-20T05:44:45;3.85;;;1.73;;
35689;SDS011;26977;44.830;-0.674;2022-08-20T05:47:11;4.75;;;1.30;;
35689;SDS011;26977;44.830;-0.674;2022-08-20T05:49:37;3.55;;;1.55;;
35689;SDS011;26977;44.830;-0.674;2022-08-20T05:52:04;2.17;;;1.27;;
35689;SDS011;26977;44.830;-0.674;2022-08-20T05:54:30;2.33;;;1.20;;
35689;SDS011;26977;44.830;-0.674;2022-08-20T05:56:56;2.75;;;1.40;;
35689;SDS011;26977;44.830;-0.674;2022-08-20T05:59:22;2.80;;;1.42;;
35689;SDS011;26977;44.830;-0.674;2022-08-20T06:01:49;1.83;;;1.30;;
35689;SDS011;26977;44.830;-0.674;2022-08-20T06:04:15;3.95;;;1.35;;
35689;SDS011;26977;44.830;-0.674;2022-08-20T06:07:02;2.38;;;1.25;;
35689;SDS011;26977;44.830;-0.674;2022-08-20T06:09:29;3.90;;;1.27;;
35689;SDS011;26977;44.830;-0.674;2022-08-20T06:11:55;2.42;;;1.08;;
35689;SDS011;26977;44.830;-0.674;2022-08-20T06:14:23;4.65;;;1.70;;
35689;SDS011;26977;44.830;-0.674;2022-08-20T06:16:49;4.68;;;1.70;;
35689;SDS011;26977;44.830;-0.674;2022-08-20T06:19:15;2.95;;;1.73;;
35689;SDS011;26977;44.830;-0.674;2022-08-20T06:21:41;5.30;;;1.88;;
35689;SDS011;26977;44.830;-0.674;2022-08-20T06:24:06;3.40;;;2.20;;
35689;SDS011;26977;44.830;-0.674;2022-08-20T06:26:32;3.58;;;1.90;;
35689;SDS011;26977;44.830;-0.674;2022-08-20T06:28:59;4.20;;;2.13;;
35689;SDS011;26977;44.830;-0.674;2022-08-20T06:31:25;3.05;;;1.92;;
35689;SDS011;26977;44.830;-0.674;2022-08-20T06:33:51;2.80;;;2.10;;
35689;SDS011;26977;44.830;-0.674;2022-08-20T06:36:17;3.00;;;1.90;;
35689;SDS011;26977;44.830;-0.674;2022-08-20T06:38:43;3.80;;;2.10;;
35689;SDS011;26977;44.830;-0.674;2022-08-20T06:41:10;4.03;;;2.35;;
35689;SDS011;26977;44.830;-0.674;2022-08-20T06:43:36;2.58;;;1.92;;
35689;SDS011;26977;44.830;-0.674;2022-08-20T06:46:01;4.03;;;1.75;;
35689;SDS011;26977;44.830;-0.674;2022-08-20T06:48:27;2.90;;;1.80;;
35689;SDS011;26977;44.830;-0.674;2022-08-20T06:50:53;5.63;;;1.88;;
35689;SDS011;26977;44.830;-0.674;2022-08-20T06:53:19;3.42;;;1.90;;
35689;SDS011;26977;44.830;-0.674;2022-08-20T06:55:49;3.22;;;1.80;;
35689;SDS011;26977;44.830;-0.674;2022-08-20T06:58:17;3.03;;;2.05;;
35689;SDS011;26977;44.830;-0.674;2022-08-20T07:00:45;2.55;;;1.80;;
35689;SDS011;26977;44.830;-0.674;2022-08-20T07:03:11;2.15;;;1.70;;
35689;SDS011;26977;44.830;-0.674;2022-08-20T07:05:39;3.03;;;1.60;;
35689;SDS011;26977;44.830;-0.674;2022-08-20T07:08:10;4.15;;;1.67;;
35689;SDS011;26977;44.830;-0.674;2022-08-20T07:10:37;2.53;;;1.30;;
35689;SDS011;26977;44.830;-0.674;2022-08-20T07:13:04;4.22;;;1.73;;
35689;SDS011;26977;44.830;-0.674;2022-08-20T07:15:30;2.67;;;1.33;;
35689;SDS011;26977;44.830;-0.674;2022-08-20T07:17:58;3.80;;;1.60;;
35689;SDS011;26977;44.830;-0.674;2022-08-20T07:20:27;1.92;;;1.15;;
35689;SDS011;26977;44.830;-0.674;2022-08-20T07:22:53;3.17;;;1.58;;
35689;SDS011;26977;44.830;-0.674;2022-08-20T07:25:19;2.08;;;1.40;;
35689;SDS011;26977;44.830;-0.674;2022-08-20T07:27:46;3.97;;;1.58;;
35689;SDS011;26977;44.830;-0.674;2022-08-20T07:30:16;3.50;;;1.40;;
35689;SDS011;26977;44.830;-0.674;2022-08-20T07:33:07;3.42;;;1.67;;
35689;SDS011;26977;44.830;-0.674;2022-08-20T07:35:33;3.10;;;1.33;;
35689;SDS011;26977;44.830;-0.674;2022-08-20T07:37:59;2.65;;;1.38;;
35689;SDS011;26977;44.830;-0.674;2022-08-20T07:40:28;2.00;;;1.13;;
35689;SDS011;26977;44.830;-0.674;2022-08-20T07:42:56;2.85;;;1.40;;
35689;SDS011;26977;44.830;-0.674;2022-08-20T07:45:24;3.45;;;1.60;;
35689;SDS011;26977;44.830;-0.674;2022-08-20T07:47:51;2.35;;;1.45;;
35689;SDS011;26977;44.830;-0.674;2022-08-20T07:50:19;2.75;;;1.30;;
35689;SDS011;26977;44.830;-0.674;2022-08-20T07:52:50;2.75;;;1.15;;
35689;SDS011;26977;44.830;-0.674;2022-08-20T07:55:19;4.97;;;1.25;;
35689;SDS011;26977;44.830;-0.674;2022-08-20T07:57:46;3.30;;;1.40;;
35689;SDS011;26977;44.830;-0.674;2022-08-20T08:00:14;2.28;;;1.10;;
35689;SDS011;26977;44.830;-0.674;2022-08-20T08:02:41;3.83;;;1.00;;
35689;SDS011;26977;44.830;-0.674;2022-08-20T08:05:07;2.20;;;1.00;;
35689;SDS011;26977;44.830;-0.674;2022-08-20T08:07:33;3.45;;;1.20;;
35689;SDS011;26977;44.830;-0.674;2022-08-20T08:10:00;3.42;;;1.50;;
35689;SDS011;26977;44.830;-0.674;2022-08-20T08:12:31;3.33;;;1.40;;
35689;SDS011;26977;44.830;-0.674;2022-08-20T08:17:27;3.30;;;1.23;;
35689;SDS011;26977;44.830;-0.674;2022-08-20T08:19:55;2.97;;;1.10;;
35689;SDS011;26977;44.830;-0.674;2022-08-20T08:22:21;3.67;;;1.02;;
35689;SDS011;26977;44.830;-0.674;2022-08-20T08:24:47;2.40;;;1.00;;
35689;SDS011;26977;44.830;-0.674;2022-08-20T08:27:13;2.83;;;1.00;;
35689;SDS011;26977;44.830;-0.674;2022-08-20T08:29:42;4.00;;;1.33;;
35689;SDS011;26977;44.830;-0.674;2022-08-20T08:32:08;2.60;;;0.90;;
35689;SDS011;26977;44.830;-0.674;2022-08-20T08:34:34;1.48;;;0.80;;
35689;SDS011;26977;44.830;-0.674;2022-08-20T08:37:01;1.77;;;0.88;;
35689;SDS011;26977;44.830;-0.674;2022-08-20T08:39:29;2.80;;;0.80;;
35689;SDS011;26977;44.830;-0.674;2022-08-20T08:41:55;1.55;;;0.90;;
35689;SDS011;26977;44.830;-0.674;2022-08-20T08:44:27;1.63;;;0.80;;
35689;SDS011;26977;44.830;-0.674;2022-08-20T08:47:02;1.88;;;0.90;;
35689;SDS011;26977;44.830;-0.674;2022-08-20T08:49:42;1.48;;;0.57;;
35689;SDS011;26977;44.830;-0.674;2022-08-20T08:52:19;2.05;;;1.00;;
35689;SDS011;26977;44.830;-0.674;2022-08-20T08:54:49;2.50;;;1.10;;
35689;SDS011;26977;44.830;-0.674;2022-08-20T08:57:17;2.25;;;0.85;;
35689;SDS011;26977;44.830;-0.674;2022-08-20T08:59:44;2.20;;;1.00;;
35689;SDS011;26977;44.830;-0.674;2022-08-20T09:02:19;2.13;;;0.90;;
35689;SDS011;26977;44.830;-0.674;2022-08-20T09:04:46;1.55;;;1.00;;
35689;SDS011;26977;44.830;-0.674;2022-08-20T09:07:15;4.43;;;1.00;;
35689;SDS011;26977;44.830;-0.674;2022-08-20T09:09:42;3.08;;;1.38;;
35689;SDS011;26977;44.830;-0.674;2022-08-20T09:12:14;5.63;;;1.20;;
35689;SDS011;26977;44.830;-0.674;2022-08-20T09:14:42;2.50;;;1.07;;
35689;SDS011;26977;44.830;-0.674;2022-08-20T09:17:10;3.15;;;1.00;;
35689;SDS011;26977;44.830;-0.674;2022-08-20T09:19:36;2.45;;;1.10;;
35689;SDS011;26977;44.830;-0.674;2022-08-20T09:22:08;2.33;;;1.02;;
35689;SDS011;26977;44.830;-0.674;2022-08-20T09:24:35;2.55;;;1.10;;
35689;SDS011;26977;44.830;-0.674;2022-08-20T09:27:01;2.28;;;0.90;;
35689;SDS011;26977;44.830;-0.674;2022-08-20T09:29:27;1.80;;;1.00;;
35689;SDS011;26977;44.830;-0.674;2022-08-20T09:32:13;1.77;;;0.80;;
35689;SDS011;26977;44.830;-0.674;2022-08-20T09:34:43;2.15;;;0.90;;
35689;SDS011;26977;44.830;-0.674;2022-08-20T09:37:11;2.00;;;0.90;;
35689;SDS011;26977;44.830;-0.674;2022-08-20T09:39:37;2.78;;;0.90;;
35689;SDS011;26977;44.830;-0.674;2022-08-20T09:42:07;4.18;;;1.13;;
35689;SDS011;26977;44.830;-0.674;2022-08-20T09:44:35;1.87;;;0.70;;
35689;SDS011;26977;44.830;-0.674;2022-08-20T09:47:02;1.80;;;0.95;;
35689;SDS011;26977;44.830;-0.674;2022-08-20T09:49:28;2.22;;;1.00;;
35689;SDS011;26977;44.830;-0.674;2022-08-20T09:51:54;2.90;;;1.08;;
35689;SDS011;26977;44.830;-0.674;2022-08-20T09:54:20;4.00;;;0.85;;
35689;SDS011;26977;44.830;-0.674;2022-08-20T09:56:46;2.85;;;0.93;;
35689;SDS011;26977;44.830;-0.674;2022-08-20T09:59:13;2.60;;;0.90;;
35689;SDS011;26977;44.830;-0.674;2022-08-20T10:01:40;2.60;;;1.00;;
35689;SDS011;26977;44.830;-0.674;2022-08-20T10:04:05;1.88;;;0.70;;
35689;SDS011;26977;44.830;-0.674;2022-08-20T10:06:35;2.08;;;0.80;;
35689;SDS011;26977;44.830;-0.674;2022-08-20T10:09:03;1.05;;;0.65;;
35689;SDS011;26977;44.830;-0.674;2022-08-20T10:11:29;3.25;;;1.15;;
35689;SDS011;26977;44.830;-0.674;2022-08-20T10:13:55;1.55;;;0.85;;
35689;SDS011;26977;44.830;-0.674;2022-08-20T10:16:20;3.53;;;1.08;;
35689;SDS011;26977;44.830;-0.674;2022-08-20T10:18:46;2.45;;;0.82;;
35689;SDS011;26977;44.830;-0.674;2022-08-20T10:21:13;3.13;;;0.93;;
35689;SDS011;26977;44.830;-0.674;2022-08-20T10:23:39;1.50;;;0.88;;
35689;SDS011;26977;44.830;-0.674;2022-08-20T10:26:09;2.78;;;0.80;;
35689;SDS011;26977;44.830;-0.674;2022-08-20T10:28:36;2.70;;;0.90;;
35689;SDS011;26977;44.830;-0.674;2022-08-20T10:31:01;1.55;;;0.93;;
35689;SDS011;26977;44.830;-0.674;2022-08-20T10:33:30;1.55;;;1.00;;
35689;SDS011;26977;44.830;-0.674;2022-08-20T10:35:56;1.15;;;0.70;;
35689;SDS011;26977;44.830;-0.674;2022-08-20T10:38:29;1.52;;;1.00;;
35689;SDS011;26977;44.830;-0.674;2022-08-20T10:40:55;1.42;;;0.70;;
35689;SDS011;26977;44.830;-0.674;2022-08-20T10:43:20;1.77;;;0.80;;
35689;SDS011;26977;44.830;-0.674;2022-08-20T10:45:46;1.80;;;0.90;;
35689;SDS011;26977;44.830;-0.674;2022-08-20T10:48:12;1.50;;;0.80;;
35689;SDS011;26977;44.830;-0.674;2022-08-20T10:50:38;1.65;;;0.85;;
35689;SDS011;26977;44.830;-0.674;2022-08-20T10:53:03;2.20;;;0.80;;
35689;SDS011;26977;44.830;-0.674;2022-08-20T10:55:29;2.30;;;0.80;;
35689;SDS011;26977;44.830;-0.674;2022-08-20T10:57:54;1.55;;;0.80;;
35689;SDS011;26977;44.830;-0.674;2022-08-20T11:00:21;2.03;;;0.80;;
35689;SDS011;26977;44.830;-0.674;2022-08-20T11:02:46;1.65;;;0.75;;
35689;SDS011;26977;44.830;-0.674;2022-08-20T11:05:12;1.48;;;0.90;;
35689;SDS011;26977;44.830;-0.674;2022-08-20T11:07:39;1.80;;;0.90;;
35689;SDS011;26977;44.830;-0.674;2022-08-20T11:10:06;1.75;;;0.88;;
35689;SDS011;26977;44.830;-0.674;2022-08-20T11:12:33;2.97;;;0.80;;
35689;SDS011;26977;44.830;-0.674;2022-08-20T11:14:58;2.15;;;0.93;;
35689;SDS011;26977;44.830;-0.674;2022-08-20T11:17:28;3.28;;;1.20;;
35689;SDS011;26977;44.830;-0.674;2022-08-20T11:19:56;2.08;;;0.82;;
35689;SDS011;26977;44.830;-0.674;2022-08-20T11:22:22;1.08;;;0.52;;
35689;SDS011;26977;44.830;-0.674;2022-08-20T11:24:50;1.25;;;0.70;;
35689;SDS011;26977;44.830;-0.674;2022-08-20T11:27:18;1.17;;;0.60;;
35689;SDS011;26977;44.830;-0.674;2022-08-20T11:29:48;1.45;;;0.75;;
35689;SDS011;26977;44.830;-0.674;2022-08-20T11:32:13;1.77;;;0.70;;
35689;SDS011;26977;44.830;-0.674;2022-08-20T11:34:39;1.98;;;0.95;;
35689;SDS011;26977;44.830;-0.674;2022-08-20T11:37:05;1.85;;;0.80;;
35689;SDS011;26977;44.830;-0.674;2022-08-20T11:39:31;2.15;;;0.90;;
35689;SDS011;26977;44.830;-0.674;2022-08-20T11:41:56;2.85;;;0.90;;
35689;SDS011;26977;44.830;-0.674;2022-08-20T11:44:22;3.90;;;0.90;;
35689;SDS011;26977;44.830;-0.674;2022-08-20T11:46:48;1.75;;;0.90;;
35689;SDS011;26977;44.830;-0.674;2022-08-20T11:49:14;1.45;;;0.80;;
35689;SDS011;26977;44.830;-0.674;2022-08-20T11:51:39;2.17;;;0.80;;
35689;SDS011;26977;44.830;-0.674;2022-08-20T11:54:05;3.33;;;0.90;;
35689;SDS011;26977;44.830;-0.674;2022-08-20T11:56:31;3.85;;;0.98;;
35689;SDS011;26977;44.830;-0.674;2022-08-20T11:58:56;2.28;;;0.88;;
35689;SDS011;26977;44.830;-0.674;2022-08-20T12:01:22;1.67;;;0.90;;
35689;SDS011;26977;44.830;-0.674;2022-08-20T12:03:48;1.52;;;0.70;;
35689;SDS011;26977;44.830;-0.674;2022-08-20T12:06:13;3.10;;;0.85;;
35689;SDS011;26977;44.830;-0.674;2022-08-20T12:08:39;1.60;;;0.95;;
35689;SDS011;26977;44.830;-0.674;2022-08-20T12:11:05;1.98;;;1.00;;
35689;SDS011;26977;44.830;-0.674;2022-08-20T12:13:32;1.65;;;0.70;;
35689;SDS011;26977;44.830;-0.674;2022-08-20T12:16:00;3.42;;;1.10;;
35689;SDS011;26977;44.830;-0.674;2022-08-20T12:18:26;2.72;;;0.90;;
35689;SDS011;26977;44.830;-0.674;2022-08-20T12:20:52;1.85;;;0.88;;
35689;SDS011;26977;44.830;-0.674;2022-08-20T12:23:17;1.45;;;0.80;;
35689;SDS011;26977;44.830;-0.674;2022-08-20T12:25:43;2.42;;;1.13;;
35689;SDS011;26977;44.830;-0.674;2022-08-20T12:28:10;1.90;;;0.70;;
35689;SDS011;26977;44.830;-0.674;2022-08-20T12:30:37;1.80;;;0.80;;
35689;SDS011;26977;44.830;-0.674;2022-08-20T12:33:03;2.75;;;1.00;;
35689;SDS011;26977;44.830;-0.674;2022-08-20T12:35:29;2.55;;;1.05;;
35689;SDS011;26977;44.830;-0.674;2022-08-20T12:37:56;3.20;;;0.80;;
35689;SDS011;26977;44.830;-0.674;2022-08-20T12:40:26;1.58;;;0.80;;
35689;SDS011;26977;44.830;-0.674;2022-08-20T12:42:52;2.17;;;0.80;;
35689;SDS011;26977;44.830;-0.674;2022-08-20T12:45:18;1.55;;;0.80;;
35689;SDS011;26977;44.830;-0.674;2022-08-20T12:47:45;1.80;;;0.90;;
35689;SDS011;26977;44.830;-0.674;2022-08-20T12:50:17;1.98;;;0.63;;
35689;SDS011;26977;44.830;-0.674;2022-08-20T12:52:48;1.35;;;0.80;;
35689;SDS011;26977;44.830;-0.674;2022-08-20T12:55:15;2.47;;;0.75;;
35689;SDS011;26977;44.830;-0.674;2022-08-20T12:57:43;2.83;;;1.17;;
35689;SDS011;26977;44.830;-0.674;2022-08-20T13:00:16;4.38;;;0.85;;
35689;SDS011;26977;44.830;-0.674;2022-08-20T13:02:46;1.30;;;0.80;;
35689;SDS011;26977;44.830;-0.674;2022-08-20T13:05:13;1.83;;;1.00;;
35689;SDS011;26977;44.830;-0.674;2022-08-20T13:07:40;2.63;;;0.98;;
35689;SDS011;26977;44.830;-0.674;2022-08-20T13:10:07;1.55;;;0.90;;
35689;SDS011;26977;44.830;-0.674;2022-08-20T13:12:39;2.42;;;0.90;;
35689;SDS011;26977;44.830;-0.674;2022-08-20T13:15:05;2.03;;;1.00;;
35689;SDS011;26977;44.830;-0.674;2022-08-20T13:17:31;3.22;;;1.05;;
35689;SDS011;26977;44.830;-0.674;2022-08-20T13:19:56;3.45;;;0.80;;
35689;SDS011;26977;44.830;-0.674;2022-08-20T13:22:22;1.85;;;0.70;;
35689;SDS011;26977;44.830;-0.674;2022-08-20T13:24:48;1.35;;;0.80;;
35689;SDS011;26977;44.830;-0.674;2022-08-20T13:27:15;2.80;;;0.90;;
35689;SDS011;26977;44.830;-0.674;2022-08-20T13:29:46;1.67;;;0.90;;
35689;SDS011;26977;44.830;-0.674;2022-08-20T13:32:12;3.88;;;0.80;;
35689;SDS011;26977;44.830;-0.674;2022-08-20T13:34:38;1.13;;;0.70;;
35689;SDS011;26977;44.830;-0.674;2022-08-20T13:37:14;1.33;;;0.80;;
35689;SDS011;26977;44.830;-0.674;2022-08-20T13:39:42;1.52;;;0.73;;
35689;SDS011;26977;44.830;-0.674;2022-08-20T13:42:08;1.40;;;0.63;;
35689;SDS011;26977;44.830;-0.674;2022-08-20T13:44:35;1.42;;;0.57;;
35689;SDS011;26977;44.830;-0.674;2022-08-20T13:47:21;1.25;;;0.80;;
35689;SDS011;26977;44.830;-0.674;2022-08-20T13:49:56;1.35;;;0.65;;
35689;SDS011;26977;44.830;-0.674;2022-08-20T13:52:28;2.75;;;0.70;;
35689;SDS011;26977;44.830;-0.674;2022-08-20T13:54:55;1.52;;;0.77;;
35689;SDS011;26977;44.830;-0.674;2022-08-20T13:57:21;1.13;;;0.60;;
35689;SDS011;26977;44.830;-0.674;2022-08-20T13:59:49;1.50;;;0.70;;
35689;SDS011;26977;44.830;-0.674;2022-08-20T14:02:16;2.58;;;0.75;;
35689;SDS011;26977;44.830;-0.674;2022-08-20T14:04:42;2.28;;;0.80;;
35689;SDS011;26977;44.830;-0.674;2022-08-20T14:07:16;2.53;;;0.80;;
35689;SDS011;26977;44.830;-0.674;2022-08-20T14:09:45;1.40;;;0.70;;
35689;SDS011;26977;44.830;-0.674;2022-08-20T14:12:13;1.42;;;0.65;;
35689;SDS011;26977;44.830;-0.674;2022-08-20T14:14:40;1.05;;;0.73;;
35689;SDS011;26977;44.830;-0.674;2022-08-20T14:19:43;2.75;;;0.73;;
35689;SDS011;26977;44.830;-0.674;2022-08-20T14:22:10;1.10;;;0.70;;
35689;SDS011;26977;44.830;-0.674;2022-08-20T14:24:37;3.17;;;0.90;;
35689;SDS011;26977;44.830;-0.674;2022-08-20T14:27:03;2.00;;;0.90;;
35689;SDS011;26977;44.830;-0.674;2022-08-20T14:29:31;2.30;;;0.85;;
35689;SDS011;26977;44.830;-0.674;2022-08-20T14:31:57;2.42;;;1.00;;
35689;SDS011;26977;44.830;-0.674;2022-08-20T14:34:23;1.33;;;0.75;;
35689;SDS011;26977;44.830;-0.674;2022-08-20T14:36:48;2.08;;;0.75;;
35689;SDS011;26977;44.830;-0.674;2022-08-20T14:39:14;1.77;;;0.88;;
35689;SDS011;26977;44.830;-0.674;2022-08-20T14:41:40;1.70;;;0.80;;
35689;SDS011;26977;44.830;-0.674;2022-08-20T14:44:06;1.48;;;0.85;;
35689;SDS011;26977;44.830;-0.674;2022-08-20T14:46:31;1.67;;;0.80;;
35689;SDS011;26977;44.830;-0.674;2022-08-20T14:48:57;1.50;;;0.80;;